Time;durP1;ratioP1;P1;durP2;ratioP2;P2;SDS_P1;SDS_P2;PMS_P1;PMS_P2;Temp;Humidity;BMP_temperature;BMP_pressure;BME280_temperature;BME280_humidity;BME280_pressure;Samples;Min_cycle;Max_cycle;Signal;HPM_P1;HPM_P2
2022/01/13 00:01:32;;;;;;;56.10;24.95;;;-2.70;69.80;;;;;;5113768;27;46315;-67
2022/01/13 00:04:01;;;;;;;55.05;25.67;;;-2.70;69.90;;;;;;5107111;27;46590;-67
2022/01/13 00:06:27;;;;;;;46.63;22.90;;;-2.80;70.00;;;;;;5100939;27;46391;-66
2022/01/13 00:08:52;;;;;;;65.60;25.87;;;-2.80;70.00;;;;;;5106821;27;46454;-68
2022/01/13 00:11:18;;;;;;;57.27;24.80;;;-2.80;70.10;;;;;;5106754;27;46335;-67
2022/01/13 00:14:07;;;;;;;53.60;25.43;;;-2.90;70.00;;;;;;5106380;27;46389;-66
2022/01/13 00:16:55;;;;;;;54.67;23.05;;;-2.90;71.30;;;;;;5105947;27;46134;-66
2022/01/13 00:19:33;;;;;;;53.15;24.40;;;-2.90;70.20;;;;;;5105142;27;46395;-67
2022/01/13 00:22:17;;;;;;;59.67;25.02;;;-3.00;70.10;;;;;;5102956;27;46467;-66
2022/01/13 00:24:45;;;;;;;51.42;23.23;;;-3.10;70.00;;;;;;5105528;27;46379;-66
2022/01/13 00:27:13;;;;;;;56.75;23.35;;;-3.00;70.10;;;;;;5105032;27;48022;-67
2022/01/13 00:29:42;;;;;;;53.40;24.00;;;-3.00;70.10;;;;;;5108406;27;46455;-65
2022/01/13 00:32:09;;;;;;;51.78;24.38;;;-3.10;70.10;;;;;;5093611;27;46316;-67
2022/01/13 00:34:35;;;;;;;63.42;26.45;;;-3.10;70.30;;;;;;5104796;27;46310;-66
2022/01/13 00:37:01;;;;;;;50.93;24.10;;;-3.20;70.50;;;;;;5104656;27;46283;-68
2022/01/13 00:39:27;;;;;;;55.27;25.30;;;-3.20;70.50;;;;;;5104368;27;46435;-67
2022/01/13 00:41:53;;;;;;;61.47;25.83;;;-3.20;70.60;;;;;;5107316;27;45716;-67
2022/01/13 00:44:20;;;;;;;54.90;24.50;;;-3.30;70.60;;;;;;5106242;27;46372;-68
2022/01/13 00:46:57;;;;;;;61.15;25.42;;;-3.20;70.70;;;;;;5103939;27;47782;-68
2022/01/13 00:49:23;;;;;;;60.63;26.45;;;-3.20;70.50;;;;;;5105667;27;46576;-67
2022/01/13 00:51:49;;;;;;;60.60;23.60;;;-3.30;70.30;;;;;;5106767;27;46412;-68
2022/01/13 00:54:15;;;;;;;61.17;24.48;;;-3.30;70.40;;;;;;5110541;27;46581;-67
2022/01/13 00:56:41;;;;;;;46.40;22.00;;;-3.30;70.40;;;;;;5104127;27;47849;-66
2022/01/13 00:59:15;;;;;;;58.53;23.80;;;-3.30;70.40;;;;;;5104244;27;46404;-68
2022/01/13 01:01:47;;;;;;;54.88;23.67;;;-3.30;70.20;;;;;;5103866;27;46358;-69
2022/01/13 01:04:14;;;;;;;63.30;25.60;;;-3.30;70.30;;;;;;5122971;27;46451;-67
2022/01/13 01:20:09;;;;;;;49.10;23.08;;;-3.40;70.40;;;;;;5102103;27;46306;-68
2022/01/13 01:22:56;;;;;;;47.53;21.70;;;-3.50;70.40;;;;;;5106914;27;46355;-67
2022/01/13 01:27:56;;;;;;;46.95;21.25;;;-3.50;70.50;;;;;;5106482;27;46435;-67
2022/01/13 01:32:50;;;;;;;46.07;19.67;;;-3.60;70.40;;;;;;5105285;27;46367;-67
2022/01/13 01:35:19;;;;;;;49.58;22.08;;;-3.60;70.50;;;;;;5109792;27;46569;-67
2022/01/13 01:37:46;;;;;;;44.05;19.33;;;-3.60;70.50;;;;;;5104838;27;46004;-67
2022/01/13 01:40:17;;;;;;;48.60;22.35;;;-3.60;70.50;;;;;;5092587;27;49121;-69
2022/01/13 01:42:46;;;;;;;45.13;19.95;;;-3.70;70.50;;;;;;5113067;27;46398;-67
2022/01/13 01:45:11;;;;;;;44.38;20.50;;;-3.60;70.50;;;;;;5102534;27;46275;-67
2022/01/13 01:47:37;;;;;;;41.23;19.20;;;-3.60;70.50;;;;;;5103413;27;46384;-68
2022/01/13 01:53:27;;;;;;;48.67;19.70;;;-3.70;70.60;;;;;;5097555;27;46619;-66
2022/01/13 01:55:56;;;;;;;43.75;20.60;;;-3.70;70.50;;;;;;5104726;27;46444;-69
2022/01/13 01:58:22;;;;;;;50.30;21.23;;;-3.70;70.50;;;;;;5105480;27;46495;-65
2022/01/13 02:00:48;;;;;;;51.55;21.67;;;-3.70;70.50;;;;;;5104080;27;47263;-65
2022/01/13 02:03:16;;;;;;;42.63;19.07;;;-3.80;70.50;;;;;;5104413;27;46398;-66
2022/01/13 02:05:41;;;;;;;53.00;20.02;;;-3.80;70.60;;;;;;5107944;27;46458;-68
2022/01/13 02:08:07;;;;;;;49.90;20.53;;;-3.80;70.60;;;;;;5113276;27;46306;-68
2022/01/13 02:10:33;;;;;;;47.07;19.47;;;-3.80;70.60;;;;;;5111549;27;47683;-67
2022/01/13 02:13:05;;;;;;;41.38;19.33;;;-3.80;70.60;;;;;;5091361;27;46409;-67
2022/01/13 02:15:34;;;;;;;48.08;19.73;;;-3.80;70.50;;;;;;5102055;27;46379;-66
2022/01/13 02:18:03;;;;;;;47.38;21.27;;;-3.80;70.50;;;;;;5101047;27;46493;-66
2022/01/13 02:20:52;;;;;;;52.38;20.63;;;-3.80;70.50;;;;;;5092493;27;48495;-67
2022/01/13 02:23:39;;;;;;;41.92;18.92;;;-3.80;70.50;;;;;;5103127;27;46506;-67
2022/01/13 02:26:09;;;;;;;45.83;20.77;;;-3.80;70.30;;;;;;5103186;27;46348;-68
2022/01/13 02:28:35;;;;;;;51.58;22.00;;;-3.50;70.30;;;;;;5110404;27;46292;-67
2022/01/13 02:31:02;;;;;;;48.78;21.13;;;-3.50;69.90;;;;;;5093305;27;48039;-68
2022/01/13 02:33:27;;;;;;;52.20;22.38;;;-3.30;69.30;;;;;;5110249;27;46411;-67
2022/01/13 02:35:54;;;;;;;50.47;21.47;;;-3.10;68.80;;;;;;5105264;27;46440;-68
2022/01/13 02:38:20;;;;;;;58.05;22.65;;;-2.90;68.40;;;;;;5103007;27;46565;-66
2022/01/13 02:40:52;;;;;;;54.50;23.43;;;-2.70;68.20;;;;;;5102726;27;46286;-67
2022/01/13 02:43:18;;;;;;;54.15;23.20;;;-2.60;67.80;;;;;;5102074;27;45931;-68
2022/01/13 02:46:02;;;;;;;46.77;21.37;;;-2.40;67.30;;;;;;5105929;27;46277;-66
2022/01/13 02:48:30;;;;;;;52.92;22.65;;;-2.30;67.40;;;;;;5102132;27;46284;-67
2022/01/13 02:50:57;;;;;;;55.88;24.02;;;-2.10;67.60;;;;;;5103900;27;48943;-67
2022/01/13 02:53:23;;;;;;;46.33;20.80;;;-2.00;67.60;;;;;;5100570;27;46678;-68
2022/01/13 02:55:50;;;;;;;52.38;22.25;;;-1.90;67.70;;;;;;5104508;27;46376;-68
2022/01/13 02:58:16;;;;;;;48.65;21.33;;;-1.80;67.80;;;;;;5103924;27;46482;-67
2022/01/13 03:00:43;;;;;;;51.58;21.83;;;-1.70;67.90;;;;;;5104579;27;46349;-67
2022/01/13 03:03:09;;;;;;;52.28;22.35;;;-1.60;67.90;;;;;;5104926;27;46205;-68
2022/01/13 03:05:38;;;;;;;53.08;23.30;;;-1.60;67.40;;;;;;5105896;27;46459;-67
2022/01/13 03:08:08;;;;;;;56.03;23.35;;;-1.50;67.30;;;;;;5108937;27;46331;-68
2022/01/13 03:10:34;;;;;;;57.65;23.95;;;-1.40;67.30;;;;;;5109822;27;47737;-67
2022/01/13 03:13:01;;;;;;;55.58;23.90;;;-1.40;67.40;;;;;;5108089;27;46459;-67
2022/01/13 03:15:27;;;;;;;60.45;24.58;;;-1.30;67.50;;;;;;5104995;27;46495;-66
2022/01/13 03:17:52;;;;;;;61.93;26.40;;;-1.30;67.50;;;;;;5107410;27;46392;-67
2022/01/13 03:20:18;;;;;;;64.87;26.00;;;-1.20;68.20;;;;;;5108140;27;47551;-67
2022/01/13 03:22:44;;;;;;;65.10;26.60;;;-1.10;67.60;;;;;;5105350;27;46356;-66
2022/01/13 03:25:10;;;;;;;55.80;23.87;;;-1.10;67.50;;;;;;5096824;27;46382;-67
2022/01/13 03:27:37;;;;;;;71.50;25.42;;;-1.10;67.50;;;;;;5105161;27;46301;-66
2022/01/13 03:30:06;;;;;;;69.13;23.65;;;-1.10;67.60;;;;;;5105322;27;47806;-68
2022/01/13 03:32:36;;;;;;;66.82;21.95;;;-1.10;67.70;;;;;;5097996;27;46008;-66
2022/01/13 03:35:05;;;;;;;64.55;21.52;;;-1.10;67.80;;;;;;5109338;27;46278;-67
2022/01/13 03:37:31;;;;;;;68.82;21.90;;;-1.20;67.90;;;;;;5126286;27;46360;-67
2022/01/13 03:39:58;;;;;;;57.35;24.13;;;-1.20;68.30;;;;;;5107582;27;47976;-67
2022/01/13 03:42:23;;;;;;;60.10;20.60;;;-1.20;68.30;;;;;;5106559;27;46380;-67
2022/01/13 03:44:49;;;;;;;60.70;21.37;;;-1.20;68.30;;;;;;5107116;27;46274;-67
2022/01/13 03:47:15;;;;;;;80.87;22.80;;;-1.20;68.30;;;;;;5106237;27;45785;-67
2022/01/13 03:49:42;;;;;;;76.40;21.30;;;-1.30;68.20;;;;;;5103841;27;47250;-65
2022/01/13 03:52:23;;;;;;;62.75;21.40;;;-1.30;68.30;;;;;;5105048;27;46333;-68
2022/01/13 03:55:14;;;;;;;57.75;20.27;;;-1.30;68.20;;;;;;5104538;27;46274;-67
2022/01/13 03:58:04;;;;;;;64.05;20.73;;;-1.40;68.20;;;;;;5103322;27;46418;-67
2022/01/13 04:00:53;;;;;;;73.10;20.70;;;-1.40;68.20;;;;;;5104998;27;47903;-67
2022/01/13 04:03:19;;;;;;;61.15;20.45;;;-1.40;68.10;;;;;;5074375;27;46492;-65
2022/01/13 04:06:03;;;;;;;62.93;20.70;;;-1.40;68.20;;;;;;5103592;27;45876;-66
2022/01/13 04:08:30;;;;;;;52.67;20.42;;;-1.50;68.00;;;;;;5117462;27;46474;-66
2022/01/13 04:11:10;;;;;;;74.80;22.70;;;-1.40;68.20;;;;;;5110562;27;48584;-68
2022/01/13 04:13:55;;;;;;;68.68;20.70;;;-1.50;68.00;;;;;;5101824;27;46452;-67
2022/01/13 04:16:27;;;;;;;53.97;19.98;;;-1.50;68.00;;;;;;5106033;27;46454;-67
2022/01/13 04:18:55;;;;;;;84.80;21.13;;;-1.60;67.90;;;;;;5102920;27;46583;-68
2022/01/13 04:21:21;;;;;;;64.53;21.77;;;-1.50;68.10;;;;;;5093126;27;47885;-67
2022/01/13 04:23:48;;;;;;;75.20;22.98;;;-1.50;68.00;;;;;;5104839;27;46450;-67
2022/01/13 04:26:18;;;;;;;54.35;19.90;;;-1.50;68.10;;;;;;5106682;27;46353;-65
2022/01/13 04:28:44;;;;;;;52.05;21.27;;;-1.50;68.10;;;;;;5110571;27;46610;-67
2022/01/13 04:31:10;;;;;;;58.08;21.27;;;-1.50;68.00;;;;;;5106405;27;47256;-67
2022/01/13 04:33:37;;;;;;;54.90;21.43;;;-1.40;68.20;;;;;;5114436;27;46328;-67
2022/01/13 04:36:05;;;;;;;57.78;21.45;;;-1.40;68.20;;;;;;5113872;27;45811;-66
2022/01/13 04:38:31;;;;;;;65.90;20.23;;;-1.40;68.10;;;;;;5109832;27;46502;-66
2022/01/13 04:41:00;;;;;;;76.47;20.70;;;-1.50;68.10;;;;;;5103583;27;47890;-65
2022/01/13 04:43:30;;;;;;;57.22;19.65;;;-1.50;68.60;;;;;;5102837;27;46366;-65
2022/01/13 04:45:56;;;;;;;48.70;20.35;;;-1.50;68.60;;;;;;5104004;27;46453;-67
2022/01/13 04:48:22;;;;;;;63.42;20.23;;;-1.50;68.50;;;;;;5102056;27;46467;-66
2022/01/13 04:50:48;;;;;;;76.93;20.77;;;-1.50;68.80;;;;;;5103256;27;46475;-67
2022/01/13 04:53:14;;;;;;;61.20;21.47;;;-1.50;68.80;;;;;;5101712;27;46510;-67
2022/01/13 04:55:49;;;;;;;49.58;18.85;;;-1.50;68.80;;;;;;5103441;27;46675;-67
2022/01/13 04:58:15;;;;;;;58.88;18.00;;;-1.60;68.80;;;;;;5107893;27;46517;-67
2022/01/13 05:00:41;;;;;;;49.03;18.75;;;-1.50;68.80;;;;;;5105998;27;47704;-67
2022/01/13 05:03:07;;;;;;;46.20;17.85;;;-1.60;68.70;;;;;;5108110;27;46265;-65
2022/01/13 05:05:33;;;;;;;52.93;17.43;;;-1.50;68.60;;;;;;5103909;27;46412;-66
2022/01/13 05:07:58;;;;;;;62.80;19.57;;;-1.60;68.50;;;;;;5102606;27;46373;-68
2022/01/13 05:10:24;;;;;;;57.23;21.40;;;-1.50;68.50;;;;;;5103338;27;47789;-67
2022/01/13 05:12:54;;;;;;;86.68;23.45;;;-1.50;68.50;;;;;;5105057;27;45874;-69
2022/01/13 05:15:28;;;;;;;62.97;22.35;;;-1.50;68.70;;;;;;5101965;27;46320;-67
2022/01/13 05:23:13;;;;;;;39.78;17.70;;;-1.40;69.50;;;;;;5099832;27;46670;-67
2022/01/13 05:25:40;;;;;;;53.88;19.92;;;-1.40;69.30;;;;;;5089787;27;46545;-67
2022/01/13 05:28:06;;;;;;;50.97;19.75;;;-1.30;68.80;;;;;;5108887;27;46275;-67
2022/01/13 05:30:32;;;;;;;61.60;21.43;;;-1.30;68.40;;;;;;5102774;27;48002;-67
2022/01/13 05:32:58;;;;;;;62.33;21.30;;;-1.30;68.60;;;;;;5104420;27;46549;-67
2022/01/13 05:35:25;;;;;;;54.10;20.90;;;-1.20;68.70;;;;;;5103565;27;46426;-67
2022/01/13 05:37:50;;;;;;;46.88;20.60;;;-1.20;68.70;;;;;;5108520;27;46348;-68
2022/01/13 05:40:16;;;;;;;86.73;22.23;;;-1.20;68.80;;;;;;5107048;27;47812;-67
2022/01/13 05:42:42;;;;;;;74.97;21.37;;;-1.10;69.00;;;;;;5109374;27;46370;-65
2022/01/13 05:45:19;;;;;;;60.43;20.07;;;-1.10;69.10;;;;;;5104885;27;46482;-67
2022/01/13 05:47:47;;;;;;;61.42;22.95;;;-1.10;68.80;;;;;;5102348;27;46394;-68
2022/01/13 05:50:15;;;;;;;51.15;19.60;;;-1.00;68.50;;;;;;5101754;27;47916;-68
2022/01/13 05:52:41;;;;;;;82.90;22.60;;;-1.00;68.60;;;;;;5101628;27;46735;-67
2022/01/13 05:55:08;;;;;;;74.35;21.52;;;-0.90;68.60;;;;;;5092409;27;46732;-65
2022/01/13 05:57:34;;;;;;;53.70;20.25;;;-0.90;68.60;;;;;;5093078;27;46419;-67
2022/01/13 06:00:00;;;;;;;49.13;21.83;;;-1.00;68.50;;;;;;5102171;27;47844;-67
2022/01/13 06:02:25;;;;;;;54.97;20.30;;;-1.00;68.50;;;;;;5105184;27;45761;-65
2022/01/13 06:04:51;;;;;;;54.60;20.50;;;-0.90;68.60;;;;;;5104251;27;46373;-67
2022/01/13 06:07:17;;;;;;;73.20;21.40;;;-0.90;68.60;;;;;;5102063;27;46673;-67
2022/01/13 06:09:43;;;;;;;52.33;21.07;;;-1.00;68.50;;;;;;5102191;27;46449;-67
2022/01/13 06:12:09;;;;;;;50.08;20.48;;;-0.90;68.60;;;;;;5106779;27;46501;-67
2022/01/13 06:14:35;;;;;;;60.15;22.10;;;-0.90;68.60;;;;;;5084738;27;46472;-68
2022/01/13 06:17:01;;;;;;;52.27;19.70;;;-0.90;68.60;;;;;;5111682;27;46291;-68
2022/01/13 06:19:27;;;;;;;46.70;21.07;;;-0.80;68.60;;;;;;5100895;27;49151;-66
2022/01/13 06:21:52;;;;;;;54.63;22.90;;;-0.90;68.60;;;;;;5102211;27;46441;-67
2022/01/13 06:24:18;;;;;;;53.63;21.20;;;-0.80;68.60;;;;;;5101929;27;46268;-67
2022/01/13 06:26:44;;;;;;;53.23;22.30;;;-0.80;68.70;;;;;;5102565;27;46571;-67
2022/01/13 06:29:10;;;;;;;52.63;21.10;;;-0.70;68.80;;;;;;5102192;27;47770;-67
2022/01/13 06:31:36;;;;;;;52.60;20.13;;;-0.80;68.60;;;;;;5101726;27;46689;-67
2022/01/13 06:34:02;;;;;;;48.80;19.50;;;-0.90;68.60;;;;;;5111293;27;46510;-67
2022/01/13 06:36:28;;;;;;;41.97;18.38;;;-1.00;68.50;;;;;;5109781;27;46462;-65
2022/01/13 06:38:54;;;;;;;43.00;18.90;;;-1.00;69.00;;;;;;5133047;27;47858;-67
2022/01/13 06:41:20;;;;;;;43.00;17.97;;;-1.00;68.90;;;;;;5109020;27;46406;-67
2022/01/13 06:43:46;;;;;;;45.50;18.30;;;-0.90;68.70;;;;;;5096306;27;46545;-67
2022/01/13 06:46:14;;;;;;;64.57;20.20;;;-0.80;68.60;;;;;;5106639;27;46442;-68
2022/01/13 06:48:40;;;;;;;55.05;19.35;;;-0.80;68.60;;;;;;5102370;27;46324;-65
2022/01/13 06:51:06;;;;;;;45.37;18.80;;;-0.80;68.60;;;;;;5104762;27;45843;-66
2022/01/13 06:53:31;;;;;;;67.63;20.70;;;-0.80;68.60;;;;;;5105305;27;45748;-67
2022/01/13 06:55:57;;;;;;;46.40;20.30;;;-0.70;68.70;;;;;;5105695;27;46314;-67
2022/01/13 06:58:23;;;;;;;55.00;20.67;;;-0.70;68.70;;;;;;5106941;27;46499;-66
2022/01/13 07:00:48;;;;;;;61.17;20.57;;;-0.70;68.70;;;;;;5110126;27;46439;-67
2022/01/13 07:03:14;;;;;;;65.87;20.73;;;-0.70;68.70;;;;;;5107952;27;45747;-67
2022/01/13 07:05:40;;;;;;;54.50;21.57;;;-0.90;68.60;;;;;;5108141;27;46674;-67
2022/01/13 07:08:10;;;;;;;61.17;21.33;;;-1.00;69.40;;;;;;5106320;27;47924;-67
2022/01/13 07:10:36;;;;;;;60.80;22.98;;;-1.00;69.70;;;;;;5111068;27;46295;-66
2022/01/13 07:13:02;;;;;;;53.63;20.27;;;-1.00;69.50;;;;;;5103950;27;46317;-67
2022/01/13 07:15:32;;;;;;;45.35;20.58;;;-0.90;70.50;;;;;;5103720;27;46354;-66
2022/01/13 07:17:59;;;;;;;47.55;21.08;;;-1.00;69.30;;;;;;5097606;27;46488;-67
2022/01/13 07:20:27;;;;;;;59.80;20.75;;;-1.00;69.50;;;;;;5100383;27;46422;-66
2022/01/13 07:22:53;;;;;;;58.60;19.45;;;-1.10;69.50;;;;;;5102030;27;46649;-67
2022/01/13 07:25:19;;;;;;;47.77;18.87;;;-1.00;69.50;;;;;;5107357;27;46364;-67
2022/01/13 07:27:45;;;;;;;49.42;18.83;;;-0.90;69.30;;;;;;5101464;27;48663;-67
2022/01/13 07:30:11;;;;;;;63.03;20.03;;;-1.00;69.10;;;;;;5105978;27;46532;-68
2022/01/13 07:32:39;;;;;;;60.85;22.67;;;-1.00;69.20;;;;;;5103375;27;46342;-67
2022/01/13 07:35:06;;;;;;;56.58;21.80;;;-1.30;70.30;;;;;;5108145;27;46356;-68
2022/01/13 07:37:32;;;;;;;64.68;20.35;;;-1.30;70.60;;;;;;5100497;27;47447;-67
2022/01/13 07:39:57;;;;;;;44.83;18.97;;;-1.30;71.00;;;;;;5109612;27;46472;-67
2022/01/13 07:42:24;;;;;;;47.33;19.60;;;-1.20;70.70;;;;;;5106186;27;46388;-66
2022/01/13 07:44:50;;;;;;;49.15;20.08;;;-1.20;70.40;;;;;;5109815;27;46428;-68
2022/01/13 07:47:16;;;;;;;55.30;19.60;;;-1.20;70.30;;;;;;5108247;27;48113;-66
2022/01/13 07:49:42;;;;;;;44.47;18.37;;;-1.10;70.30;;;;;;5107855;27;46393;-67
2022/01/13 07:52:08;;;;;;;48.93;19.00;;;-1.00;70.00;;;;;;5108320;27;46450;-68
2022/01/13 07:54:33;;;;;;;39.77;18.40;;;-1.00;70.00;;;;;;5105377;27;46507;-67
2022/01/13 07:57:00;;;;;;;43.83;17.33;;;-0.80;70.00;;;;;;5110853;27;46349;-66
2022/01/13 07:59:28;;;;;;;45.40;17.77;;;-0.70;68.80;;;;;;5106579;27;46557;-66
2022/01/13 08:02:00;;;;;;;49.92;18.35;;;-0.70;68.80;;;;;;5105330;27;46380;-66
2022/01/13 08:04:26;;;;;;;42.95;18.60;;;-0.60;68.80;;;;;;5104313;27;46472;-66
2022/01/13 08:06:52;;;;;;;41.35;18.90;;;-0.60;68.80;;;;;;5107749;27;47808;-65
2022/01/13 08:09:17;;;;;;;47.93;21.50;;;-0.50;68.90;;;;;;5109790;27;46368;-64
2022/01/13 08:11:44;;;;;;;54.90;19.30;;;-0.50;68.90;;;;;;5110948;27;46413;-67
2022/01/13 08:14:10;;;;;;;43.35;18.40;;;-0.50;68.90;;;;;;5111105;27;46388;-67
2022/01/13 08:16:37;;;;;;;53.80;20.13;;;-0.60;68.80;;;;;;5107310;27;46442;-68
2022/01/13 08:21:47;;;;;;;43.35;18.00;;;-0.70;70.20;;;;;;5107241;27;46319;-67
2022/01/13 08:24:13;;;;;;;48.13;20.10;;;-0.70;70.00;;;;;;5087860;27;46357;-65
2022/01/13 08:26:39;;;;;;;44.65;17.55;;;-0.60;69.30;;;;;;5107894;27;46262;-67
2022/01/13 08:29:05;;;;;;;47.08;19.00;;;-0.50;68.90;;;;;;5106836;27;46472;-67
2022/01/13 08:31:31;;;;;;;41.13;17.40;;;-0.40;69.00;;;;;;5109005;27;46364;-67
2022/01/13 08:33:57;;;;;;;54.17;19.88;;;-0.40;69.00;;;;;;5110133;27;46703;-66
2022/01/13 08:36:23;;;;;;;50.17;20.30;;;-0.40;69.00;;;;;;5104209;27;48746;-67
2022/01/13 08:38:49;;;;;;;53.30;24.03;;;-0.30;69.10;;;;;;5109537;27;46439;-67
2022/01/13 08:41:16;;;;;;;49.40;19.80;;;-0.30;69.10;;;;;;5103838;27;45796;-67
2022/01/13 08:43:41;;;;;;;46.22;20.17;;;-0.40;70.30;;;;;;5110340;27;46412;-67
2022/01/13 08:46:07;;;;;;;40.57;18.10;;;-0.60;70.50;;;;;;5107848;27;48731;-68
2022/01/13 08:48:34;;;;;;;39.20;17.60;;;-0.70;70.90;;;;;;5117510;27;45844;-67
2022/01/13 08:51:01;;;;;;;42.30;17.88;;;-0.80;70.90;;;;;;5104929;27;46286;-67
2022/01/13 08:53:26;;;;;;;44.38;18.20;;;-0.90;71.10;;;;;;5102554;27;46322;-67
2022/01/13 08:55:54;;;;;;;44.03;18.50;;;-0.80;70.90;;;;;;5117251;27;46382;-67
2022/01/13 08:58:23;;;;;;;42.80;17.50;;;-0.60;70.10;;;;;;5121971;27;46406;-66
2022/01/13 09:00:55;;;;;;;40.67;17.35;;;-0.40;69.00;;;;;;5105117;27;46438;-68
2022/01/13 09:03:21;;;;;;;40.25;15.52;;;-0.20;69.20;;;;;;5106078;27;46432;-67
2022/01/13 09:05:46;;;;;;;45.57;19.10;;;-0.10;68.80;;;;;;5113080;27;48645;-67
2022/01/13 09:08:13;;;;;;;40.97;17.70;;;0.00;68.30;;;;;;5104602;27;45824;-66
2022/01/13 09:10:43;;;;;;;42.80;19.50;;;0.10;68.20;;;;;;5106898;27;46445;-65
2022/01/13 09:13:14;;;;;;;44.20;19.33;;;0.20;68.10;;;;;;5103177;27;46603;-66
2022/01/13 09:15:51;;;;;;;38.70;16.90;;;0.40;68.00;;;;;;5104377;27;46415;-67
2022/01/13 09:18:30;;;;;;;42.42;17.83;;;0.50;67.60;;;;;;5103792;27;46796;-65
2022/01/13 09:20:55;;;;;;;44.55;19.50;;;0.60;67.40;;;;;;5102317;27;46350;-65
2022/01/13 09:23:21;;;;;;;52.00;22.45;;;0.60;67.50;;;;;;5100342;27;46518;-65
2022/01/13 09:25:47;;;;;;;49.20;19.57;;;0.50;67.90;;;;;;5103251;27;47904;-66
2022/01/13 09:28:13;;;;;;;40.57;17.50;;;0.30;68.60;;;;;;5104117;27;46660;-66
2022/01/13 09:30:39;;;;;;;47.83;21.60;;;0.30;68.80;;;;;;5102327;27;46460;-67
2022/01/13 09:33:06;;;;;;;47.38;19.85;;;0.20;69.50;;;;;;5090392;27;46417;-67
2022/01/13 09:35:32;;;;;;;39.08;17.70;;;0.10;69.40;;;;;;5100976;27;48716;-65
2022/01/13 09:37:58;;;;;;;42.97;17.65;;;-0.10;69.20;;;;;;5101421;27;46289;-66
2022/01/13 09:40:25;;;;;;;41.23;17.67;;;0.10;69.40;;;;;;5102051;27;46388;-66
2022/01/13 09:42:51;;;;;;;46.47;23.20;;;0.40;69.00;;;;;;5086851;27;46510;-66
2022/01/13 09:45:17;;;;;;;41.22;19.77;;;0.60;68.10;;;;;;5102788;27;47873;-65
2022/01/13 09:47:45;;;;;;;36.17;17.63;;;0.80;68.30;;;;;;5102990;27;46547;-66
2022/01/13 09:50:15;;;;;;;41.17;18.02;;;0.90;67.60;;;;;;5098634;27;46557;-66
2022/01/13 09:52:42;;;;;;;42.38;17.40;;;0.90;67.00;;;;;;5102396;27;46575;-66
2022/01/13 09:55:09;;;;;;;37.70;17.73;;;1.00;66.80;;;;;;5103431;27;46371;-65
2022/01/13 09:57:39;;;;;;;38.85;16.23;;;1.10;66.60;;;;;;5104294;27;45970;-65
2022/01/13 10:00:06;;;;;;;39.17;18.10;;;1.00;66.80;;;;;;5104782;27;46464;-67
2022/01/13 10:02:31;;;;;;;36.47;17.33;;;1.00;67.00;;;;;;5102689;27;46358;-65
2022/01/13 10:04:57;;;;;;;35.73;16.93;;;0.80;67.60;;;;;;5102917;27;46507;-66
2022/01/13 10:07:38;;;;;;;39.07;17.77;;;0.70;67.90;;;;;;5104322;27;46410;-64
2022/01/13 10:10:07;;;;;;;38.22;18.52;;;0.70;67.60;;;;;;5117469;27;46313;-67
2022/01/13 10:12:38;;;;;;;38.35;16.40;;;0.70;67.50;;;;;;5104335;27;45952;-67
2022/01/13 10:17:48;;;;;;;35.03;16.42;;;0.80;66.90;;;;;;5103122;27;46295;-66
2022/01/13 10:20:16;;;;;;;33.58;15.98;;;0.90;67.00;;;;;;5117222;27;46683;-65
2022/01/13 10:22:41;;;;;;;33.30;17.42;;;1.00;66.60;;;;;;5104690;27;45874;-66
2022/01/13 10:25:08;;;;;;;34.73;16.10;;;1.10;66.40;;;;;;5099923;27;48080;-65
2022/01/13 10:27:40;;;;;;;40.05;16.77;;;0.90;66.50;;;;;;5100182;27;46564;-65
2022/01/13 10:30:15;;;;;;;35.63;15.35;;;0.80;67.30;;;;;;5103902;27;46809;-65
2022/01/13 10:32:42;;;;;;;39.22;17.65;;;0.80;67.40;;;;;;5093693;27;46400;-68
2022/01/13 10:35:11;;;;;;;38.05;17.48;;;0.80;67.00;;;;;;5107141;27;48848;-66
2022/01/13 10:37:40;;;;;;;34.28;17.10;;;1.00;66.60;;;;;;5103495;27;46430;-66
2022/01/13 10:40:13;;;;;;;41.75;19.80;;;1.10;66.40;;;;;;5118589;27;46597;-65
2022/01/13 10:45:26;;;;;;;41.95;18.42;;;1.00;66.50;;;;;;5101053;27;46329;-66
2022/01/13 10:47:58;;;;;;;37.60;18.10;;;1.00;67.00;;;;;;5104411;27;46444;-65
2022/01/13 10:50:29;;;;;;;37.88;17.48;;;1.20;66.40;;;;;;5105333;27;46302;-66
2022/01/13 10:53:02;;;;;;;39.67;16.20;;;1.20;66.40;;;;;;5110260;27;46638;-67
2022/01/13 10:55:30;;;;;;;36.70;18.63;;;1.20;66.40;;;;;;5102886;27;48914;-66
2022/01/13 10:57:57;;;;;;;36.13;16.58;;;1.40;66.60;;;;;;5094142;27;46314;-65
2022/01/13 11:00:25;;;;;;;29.08;14.88;;;1.70;66.10;;;;;;5102167;27;46539;-66
2022/01/13 11:03:00;;;;;;;30.58;15.30;;;1.90;65.20;;;;;;5104159;27;46420;-65
2022/01/13 11:05:28;;;;;;;35.92;17.05;;;1.70;65.30;;;;;;5100974;27;46359;-65
2022/01/13 11:07:57;;;;;;;33.25;15.10;;;1.70;65.90;;;;;;5106124;27;46566;-65
2022/01/13 11:10:24;;;;;;;36.08;15.45;;;1.80;65.80;;;;;;5105583;27;46400;-65
2022/01/13 11:12:57;;;;;;;29.85;15.70;;;1.90;65.60;;;;;;5110836;27;46396;-65
2022/01/13 11:15:24;;;;;;;32.15;16.02;;;2.00;65.10;;;;;;5102589;27;47841;-67
2022/01/13 11:17:54;;;;;;;34.53;16.60;;;1.90;65.50;;;;;;5102439;27;46408;-65
2022/01/13 11:20:21;;;;;;;34.80;15.60;;;2.00;65.10;;;;;;5102282;27;46497;-65
2022/01/13 11:22:50;;;;;;;32.75;15.95;;;2.10;64.80;;;;;;5103957;27;46352;-67
2022/01/13 11:25:18;;;;;;;36.50;15.98;;;2.10;64.60;;;;;;5104399;27;47795;-65
2022/01/13 11:27:45;;;;;;;37.25;15.52;;;2.00;64.90;;;;;;5106410;27;46386;-64
2022/01/13 11:30:16;;;;;;;35.97;15.98;;;2.20;65.00;;;;;;5105898;27;46342;-67
2022/01/13 11:32:44;;;;;;;31.50;14.68;;;2.40;64.60;;;;;;5096501;27;46377;-66
2022/01/13 11:35:27;;;;;;;28.20;14.13;;;2.50;64.30;;;;;;5109519;27;48237;-65
2022/01/13 11:37:56;;;;;;;32.22;15.10;;;2.50;64.30;;;;;;5105429;27;46380;-66
2022/01/13 11:40:27;;;;;;;31.75;16.27;;;2.70;64.50;;;;;;5105226;27;46280;-64
2022/01/13 11:42:58;;;;;;;32.25;15.13;;;2.60;64.10;;;;;;5105636;27;45930;-67
2022/01/13 11:45:25;;;;;;;28.73;15.23;;;2.50;64.40;;;;;;5110710;27;47869;-66
2022/01/13 11:48:30;;;;;;;34.78;15.55;;;2.40;64.70;;;;;;5113576;27;46585;-66
2022/01/13 11:51:28;;;;;;;33.75;15.82;;;2.30;65.70;;;;;;5045052;28;46431;-66
2022/01/13 11:53:56;;;;;;;31.52;14.57;;;2.00;66.30;;;;;;5031667;28;46612;-67
2022/01/13 11:56:23;;;;;;;30.65;15.10;;;1.80;66.80;;;;;;5082801;27;47816;-66
2022/01/13 11:58:49;;;;;;;33.92;16.33;;;1.60;67.30;;;;;;5102182;27;46453;-64
2022/01/13 12:01:27;;;;;;;31.85;15.18;;;1.60;67.30;;;;;;5105273;27;46404;-64
2022/01/13 12:03:56;;;;;;;28.50;15.38;;;1.40;67.30;;;;;;5103655;27;45959;-66
2022/01/13 12:06:34;;;;;;;34.13;15.77;;;1.30;67.90;;;;;;5102154;27;46315;-65
2022/01/13 12:09:01;;;;;;;36.72;17.13;;;1.30;67.70;;;;;;5097111;27;46883;-65
2022/01/13 12:11:29;;;;;;;29.08;15.27;;;1.20;67.90;;;;;;5104674;27;46449;-64
2022/01/13 12:13:55;;;;;;;32.08;15.30;;;1.10;68.10;;;;;;5106839;27;46569;-64
2022/01/13 12:16:49;;;;;;;31.23;15.37;;;1.10;68.30;;;;;;5108692;27;48012;-66
2022/01/13 12:19:29;;;;;;;29.58;14.93;;;1.00;68.50;;;;;;5111166;27;46401;-65
2022/01/13 12:22:09;;;;;;;31.20;14.68;;;1.10;68.40;;;;;;5103384;27;46258;-67
2022/01/13 12:24:49;;;;;;;33.25;16.40;;;1.00;68.30;;;;;;5104354;27;46449;-65
2022/01/13 12:27:17;;;;;;;34.47;15.85;;;1.00;68.50;;;;;;5095938;27;48087;-64
2022/01/13 12:29:45;;;;;;;30.75;14.65;;;1.10;68.20;;;;;;5103518;27;45957;-66
2022/01/13 12:32:13;;;;;;;41.97;20.58;;;1.10;68.00;;;;;;5102062;27;46239;-67
2022/01/13 12:34:45;;;;;;;29.63;15.35;;;1.00;69.30;;;;;;5101627;27;46354;-64
2022/01/13 12:37:11;;;;;;;34.92;16.98;;;0.80;68.20;;;;;;5101441;27;48223;-64
2022/01/13 12:39:48;;;;;;;29.47;15.57;;;0.50;68.90;;;;;;5106265;27;45849;-66
2022/01/13 12:42:19;;;;;;;36.80;17.05;;;0.40;69.30;;;;;;5104485;27;46297;-66
2022/01/13 12:47:29;;;;;;;35.42;16.15;;;0.40;69.40;;;;;;5116076;27;46686;-64
2022/01/13 12:49:55;;;;;;;37.88;17.42;;;0.50;69.20;;;;;;5116543;27;45896;-67
2022/01/13 12:52:27;;;;;;;34.57;16.40;;;0.50;69.10;;;;;;5102395;27;46235;-66
2022/01/13 12:54:54;;;;;;;30.70;15.45;;;0.60;68.80;;;;;;5103335;27;46375;-66
2022/01/13 12:57:22;;;;;;;29.08;13.27;;;0.60;68.80;;;;;;5112203;27;47978;-65
2022/01/13 12:59:54;;;;;;;31.75;15.80;;;0.60;68.80;;;;;;5101866;27;46307;-65
2022/01/13 13:02:19;;;;;;;31.45;14.35;;;0.70;68.80;;;;;;5103828;27;46355;-67
2022/01/13 13:04:46;;;;;;;28.60;14.10;;;0.70;68.60;;;;;;5103416;27;46715;-67
2022/01/13 13:07:12;;;;;;;31.65;14.25;;;0.80;68.40;;;;;;5102104;27;46475;-65
2022/01/13 13:09:41;;;;;;;32.60;14.57;;;0.90;68.20;;;;;;5101817;27;46461;-65
2022/01/13 13:12:11;;;;;;;35.90;16.15;;;0.90;68.40;;;;;;5111014;27;46414;-66
2022/01/13 13:17:38;;;;;;;34.00;15.45;;;1.00;68.30;;;;;;5103559;27;45960;-67
2022/01/13 13:20:21;;;;;;;35.28;18.17;;;1.00;68.40;;;;;;5103512;27;46274;-64